Estación de Lontue

Ultimos registro cada 15 minutos 82
Estación Fecha / Hora Temperatura Humedad Lluvia Velocidad Dirección Radiación Presion
82 Lontue 04-05-2026 20:15 12,1 87,2 0 0 154 0,6 989,8
81 Lontue 04-05-2026 20:00 12,5 85,9 0 0 154 0,6 989,5
80 Lontue 04-05-2026 19:45 12,6 85,7 0 0 154 0,6 989,3
79 Lontue 04-05-2026 19:30 12,5 85,7 0 0 154 0,6 989,3
78 Lontue 04-05-2026 19:15 12,6 85,4 0 0 154 0,6 989,2
77 Lontue 04-05-2026 19:00 12,8 84,1 0 0 154 0,6 989,3
76 Lontue 04-05-2026 18:45 13 83,4 0 0 154 0,6 989,3
75 Lontue 04-05-2026 18:30 13,5 80,5 0 0 154 0,6 989
74 Lontue 04-05-2026 18:15 14,5 78,5 0 0 154 0,6 988,8
73 Lontue 04-05-2026 18:00 15,1 72,7 0 0 154 5,6 988,9
72 Lontue 04-05-2026 17:45 16,2 72,9 0 0 154 16,9 989,1
71 Lontue 04-05-2026 17:30 17,4 64,2 0 0 154 38,1 989,3
70 Lontue 04-05-2026 17:15 17,6 65,4 0 0 154 76,9 989,4
69 Lontue 04-05-2026 17:00 17,6 64,3 0 0 154 129,4 989,4
68 Lontue 04-05-2026 16:45 16,7 69,4 0 0 154 91,9 989,4
67 Lontue 04-05-2026 16:30 16,7 66,3 0 0 154 69,4 989,5
66 Lontue 04-05-2026 16:15 16,6 66,7 0 0 154 64,4 989,5
65 Lontue 04-05-2026 16:00 16,8 66,1 0 0 154 56,9 989,6
64 Lontue 04-05-2026 15:45 17,2 61,6 0 0 157 65,6 989,6
63 Lontue 04-05-2026 15:30 17,6 56,3 0 0 157 84,4 990,1
62 Lontue 04-05-2026 15:15 17,7 54,5 0 0 157 108,1 990,1
61 Lontue 04-05-2026 15:00 17,6 54,8 0 0 156 131,9 990,3
60 Lontue 04-05-2026 14:45 17,6 54,8 0 0 154 144,4 990,5
59 Lontue 04-05-2026 14:30 18,1 53,6 0 0 154 170,6 990,5
58 Lontue 04-05-2026 14:15 17,8 55,7 0 0 154 225,6 990,7
57 Lontue 04-05-2026 14:00 17,3 56,2 0 0 154 223,1 990,9
56 Lontue 04-05-2026 13:45 17,4 58,4 0 0,4 154 230,6 991,4
55 Lontue 04-05-2026 13:30 17 57,7 0 1,1 154 290,6 991,4
54 Lontue 04-05-2026 13:15 16,6 63,5 0 1,1 154 304,4 991,8
53 Lontue 04-05-2026 13:00 16,3 64,4 0 0,8 154 216,9 991,9
52 Lontue 04-05-2026 12:45 15,9 64,1 0 0,8 156 188,1 991,9
51 Lontue 04-05-2026 12:30 15,9 68,5 0 0 156 185,6 992,1
50 Lontue 04-05-2026 12:15 15,6 68,2 0 0 156 168,1 992,3
49 Lontue 04-05-2026 12:00 15,3 66,8 0 0 154 160,6 992,3
48 Lontue 04-05-2026 11:45 15,1 65,9 0 0 154 145,6 992,2
47 Lontue 04-05-2026 11:30 14,7 69,5 0 0 154 154,4 992,3
46 Lontue 04-05-2026 11:15 14,3 70,1 0 0 154 165,6 992,3
45 Lontue 04-05-2026 11:00 13,9 71,5 0 0 154 173,1 992,4
44 Lontue 04-05-2026 10:45 13,4 73,7 0 0 154 126,9 992,3
43 Lontue 04-05-2026 10:30 13 76,5 0 0 154 113,1 992,4
42 Lontue 04-05-2026 10:15 12,2 79,9 0 0 154 100,6 992,3
41 Lontue 04-05-2026 10:00 11,7 80,7 0 0,4 154 78,1 992,3
40 Lontue 04-05-2026 09:45 11,4 82,4 0 0,4 154 95,6 992,2
39 Lontue 04-05-2026 09:30 11,1 85 0 0 154 121,9 992,1
38 Lontue 04-05-2026 09:15 10,4 86,5 0 0 154 86,9 992,3
37 Lontue 04-05-2026 09:00 9,9 89 0 0 154 64,4 992,1
36 Lontue 04-05-2026 08:45 9,6 90,8 0 0 154 68,1 991,9
35 Lontue 04-05-2026 08:30 8,8 91,2 0 0 154 51,9 991,7
34 Lontue 04-05-2026 08:15 8,3 91,6 0 0 154 36,9 991,9
33 Lontue 04-05-2026 08:00 7,9 91,8 0 0 154 24,4 991,8
32 Lontue 04-05-2026 07:45 7,5 91,7 0 0 154 9,4 991,6
31 Lontue 04-05-2026 07:30 7,4 91,7 0 0 154 0,6 991,6
30 Lontue 04-05-2026 07:15 7,2 91,6 0 0 154 0,6 991,5
29 Lontue 04-05-2026 07:00 6,6 91,3 0 0 154 0,6 991,4
28 Lontue 04-05-2026 06:45 6,7 90,6 0 0 154 0,6 991,7
27 Lontue 04-05-2026 06:30 7,2 90,6 0 0 154 0,6 991,3
26 Lontue 04-05-2026 06:15 7,3 89,9 0 0 154 0,6 991,2
25 Lontue 04-05-2026 06:00 7,8 89,1 0 0 154 0,6 991,2
24 Lontue 04-05-2026 05:45 8,3 89,1 0 0 154 0,6 991,1
23 Lontue 04-05-2026 05:30 8,6 89,2 0 0 154 0,6 991,2
22 Lontue 04-05-2026 05:15 8,5 89,5 0 0 154 0,6 991,2
21 Lontue 04-05-2026 05:00 8,6 89,7 0 0 154 0,6 991,3
20 Lontue 04-05-2026 04:45 8,9 89,4 0 0 154 0,6 990,9
19 Lontue 04-05-2026 04:30 9,3 89 0 0 154 0,6 991,1
18 Lontue 04-05-2026 04:15 9,5 89,1 0 0 154 0,6 991,1
17 Lontue 04-05-2026 04:00 9,4 89,2 0 0 154 0,6 991,1
16 Lontue 04-05-2026 03:45 9,6 88,6 0 0 154 0,6 991
15 Lontue 04-05-2026 03:30 9,8 86,6 0 0 154 0,6 991,4
14 Lontue 04-05-2026 03:15 10,2 85,4 0 0 154 0,6 991,4
13 Lontue 04-05-2026 03:00 10,3 86,2 0 0 154 0,6 991,5
12 Lontue 04-05-2026 02:45 9,8 88,9 0 0,4 154 0,6 991,7
11 Lontue 04-05-2026 02:30 9,8 89,3 0 0,4 154 0,6 991,9
10 Lontue 04-05-2026 02:15 9,9 89,5 0 0 156 0,6 992,1
9 Lontue 04-05-2026 02:00 9,9 89,8 0 0 156 0,6 992
8 Lontue 04-05-2026 01:45 10,1 89,6 0 0 157 0,6 992,3
7 Lontue 04-05-2026 01:30 10,2 88,9 0 0 157 0,6 992,3
6 Lontue 04-05-2026 01:15 10,1 88,4 0 0 157 0,6 992
5 Lontue 04-05-2026 01:00 10,3 88,1 0 0 156 0,6 992,2
4 Lontue 04-05-2026 00:45 10,4 87,4 0 0 156 0,6 992,3
3 Lontue 04-05-2026 00:30 10,6 87 0 0 156 0,6 992,4
2 Lontue 04-05-2026 00:15 10,8 86,2 0 0 156 0,6 992,8
1 Lontue 04-05-2026 00:00 11 85,9 0 0 154 0,6 992,9